createdAt,value
2018-10-11T00:00:49.903Z,14.80
2018-10-11T00:04:01.747Z,14.90
2018-10-11T00:07:13.403Z,14.80
2018-10-11T00:10:25.254Z,14.80
2018-10-11T00:13:36.745Z,14.80
2018-10-11T00:16:48.291Z,14.80
2018-10-11T00:19:59.570Z,14.80
2018-10-11T00:23:11.131Z,14.80
2018-10-11T00:26:22.418Z,14.70
2018-10-11T00:29:34.094Z,14.60
2018-10-11T00:32:45.174Z,14.50
2018-10-11T00:35:56.441Z,14.50
2018-10-11T00:39:09.350Z,14.60
2018-10-11T00:42:20.853Z,14.60
2018-10-11T00:45:31.955Z,14.50
2018-10-11T00:48:43.827Z,14.60
2018-10-11T00:51:55.473Z,14.40
2018-10-11T00:55:07.694Z,14.40
2018-10-11T00:58:18.965Z,14.40
2018-10-11T01:01:30.645Z,14.40
2018-10-11T01:04:41.918Z,14.40
2018-10-11T01:07:53.682Z,14.30
2018-10-11T01:11:06.150Z,14.30
2018-10-11T01:14:18.201Z,14.20
2018-10-11T01:17:29.434Z,14.10
2018-10-11T01:20:41.403Z,14.00
2018-10-11T01:23:53.416Z,14.00
2018-10-11T01:27:05.467Z,14.00
2018-10-11T01:30:16.735Z,13.90
2018-10-11T01:33:28.504Z,14.00
2018-10-11T01:36:39.875Z,13.90
2018-10-11T01:39:51.878Z,13.90
2018-10-11T01:43:06.135Z,13.80
2018-10-11T01:46:17.170Z,13.80
2018-10-11T01:49:29.220Z,13.80
2018-10-11T01:52:40.320Z,13.80
2018-10-11T01:55:51.370Z,13.80
2018-10-11T01:59:02.642Z,13.70
2018-10-11T02:02:14.621Z,13.70
2018-10-11T02:05:27.217Z,13.70
2018-10-11T02:08:38.954Z,13.40
2018-10-11T02:11:50.378Z,13.60
2018-10-11T02:15:01.492Z,13.50
2018-10-11T02:18:12.559Z,13.60
2018-10-11T02:21:24.368Z,13.70
2018-10-11T02:24:35.889Z,13.70
2018-10-11T02:27:47.776Z,13.60
2018-10-11T02:30:59.185Z,13.60
2018-10-11T02:34:10.499Z,13.60
2018-10-11T02:37:22.431Z,13.50
2018-10-11T02:40:33.783Z,13.50
2018-10-11T02:43:44.855Z,13.40
2018-10-11T02:46:56.193Z,13.40
2018-10-11T02:50:08.244Z,13.40
2018-10-11T02:53:20.103Z,13.40
2018-10-11T02:56:31.194Z,13.40
2018-10-11T02:59:42.611Z,13.30
2018-10-11T03:02:54.108Z,13.30
2018-10-11T03:06:06.033Z,13.30
2018-10-11T03:09:18.824Z,13.20
2018-10-11T03:12:30.758Z,13.20
2018-10-11T03:15:42.886Z,13.20
2018-10-11T03:18:54.417Z,13.10
2018-10-11T03:22:05.617Z,13.10
2018-10-11T03:25:16.883Z,13.10
2018-10-11T03:28:28.987Z,13.10
2018-10-11T03:31:40.440Z,13.00
2018-10-11T03:34:51.484Z,13.00
2018-10-11T03:38:03.232Z,12.90
2018-10-11T03:41:15.157Z,13.00
2018-10-11T03:44:26.896Z,13.00
2018-10-11T03:47:38.078Z,13.10
2018-10-11T03:50:49.517Z,13.10
2018-10-11T03:54:00.598Z,13.10
2018-10-11T03:57:11.986Z,13.10
2018-10-11T04:00:23.049Z,13.30
2018-10-11T04:03:34.632Z,13.30
2018-10-11T04:06:45.837Z,13.50
2018-10-11T04:09:58.514Z,13.50
2018-10-11T04:13:09.894Z,13.50
2018-10-11T04:16:21.475Z,13.60
2018-10-11T04:19:32.953Z,13.60
2018-10-11T04:22:44.195Z,13.60
2018-10-11T04:25:55.211Z,13.60
2018-10-11T04:29:07.213Z,13.60
2018-10-11T04:32:18.339Z,13.60
2018-10-11T04:35:29.799Z,13.50
2018-10-11T04:38:41.115Z,13.50
2018-10-11T04:41:52.403Z,13.50
2018-10-11T04:45:03.726Z,13.50
2018-10-11T04:48:15.513Z,13.50
2018-10-11T04:51:27.365Z,13.40
2018-10-11T04:54:38.437Z,13.40
2018-10-11T04:57:49.933Z,13.50
2018-10-11T05:01:01.425Z,13.40
2018-10-11T05:04:12.683Z,13.40
2018-10-11T05:07:24.132Z,13.40
2018-10-11T05:10:35.945Z,13.40
2018-10-11T05:13:49.577Z,13.30
2018-10-11T05:17:01.240Z,13.40
2018-10-11T05:20:13.404Z,13.40
2018-10-11T05:23:25.060Z,13.40
2018-10-11T05:26:37.433Z,13.40
2018-10-11T05:29:49.142Z,13.40
2018-10-11T05:33:01.116Z,13.50
2018-10-11T05:36:12.949Z,13.50
2018-10-11T05:39:24.387Z,13.50
2018-10-11T05:42:36.579Z,13.60
2018-10-11T05:45:56.669Z,13.70
2018-10-11T05:49:08.668Z,13.70
2018-10-11T05:52:20.787Z,13.70
2018-10-11T05:55:32.529Z,13.70
2018-10-11T05:58:44.496Z,13.70
2018-10-11T06:01:56.203Z,13.70
2018-10-11T06:05:07.383Z,13.70
2018-10-11T06:08:19.539Z,13.70
2018-10-11T06:11:31.216Z,13.80
2018-10-11T06:14:42.790Z,13.70
2018-10-11T06:17:54.163Z,13.80
2018-10-11T06:21:06.254Z,13.80
2018-10-11T06:24:17.835Z,13.80
2018-10-11T06:27:31.221Z,13.80
2018-10-11T06:30:42.553Z,13.90
2018-10-11T06:33:54.847Z,13.90
2018-10-11T06:37:06.566Z,14.00
2018-10-11T06:40:18.236Z,14.10
2018-10-11T06:43:29.515Z,14.20
2018-10-11T06:46:40.904Z,14.30
2018-10-11T06:49:52.413Z,14.40
2018-10-11T06:53:05.102Z,14.40
2018-10-11T06:56:16.803Z,14.40
2018-10-11T06:59:28.482Z,14.50
2018-10-11T07:02:39.746Z,14.60
2018-10-11T07:05:51.622Z,14.60
2018-10-11T07:09:02.687Z,14.70
2018-10-11T07:12:14.171Z,14.80
2018-10-11T07:15:25.581Z,15.00
2018-10-11T07:18:37.122Z,15.00
2018-10-11T07:21:48.345Z,15.20
2018-10-11T07:24:59.891Z,15.30
2018-10-11T07:28:11.566Z,15.40
2018-10-11T07:31:23.552Z,15.50
2018-10-11T07:34:35.590Z,15.70
2018-10-11T07:37:47.536Z,15.80
2018-10-11T07:40:59.039Z,15.90
2018-10-11T07:44:10.758Z,16.00
2018-10-11T07:47:22.814Z,16.20
2018-10-11T07:50:34.293Z,16.30
2018-10-11T07:53:46.037Z,16.50
2018-10-11T07:57:05.058Z,16.60
2018-10-11T08:00:16.441Z,16.70
2018-10-11T08:03:28.022Z,16.80
2018-10-11T08:06:39.598Z,17.00
2018-10-11T08:09:50.887Z,17.10
2018-10-11T08:13:02.832Z,17.30
2018-10-11T08:16:14.045Z,17.40
2018-10-11T08:19:25.800Z,17.50
2018-10-11T08:22:38.176Z,17.60
2018-10-11T08:25:49.939Z,17.70
2018-10-11T08:29:00.903Z,17.80
2018-10-11T08:32:12.057Z,17.90
2018-10-11T08:35:23.495Z,18.00
2018-10-11T08:38:35.538Z,18.10
2018-10-11T08:41:47.086Z,18.10
2018-10-11T08:44:58.411Z,18.20
2018-10-11T08:48:10.213Z,18.30
2018-10-11T08:51:22.295Z,18.40
2018-10-11T08:54:38.732Z,18.50
2018-10-11T08:57:50.631Z,18.60
2018-10-11T09:01:01.782Z,18.70
2018-10-11T09:04:13.110Z,18.80
2018-10-11T09:07:25.106Z,19.00
2018-10-11T09:10:38.516Z,19.20
2018-10-11T09:13:49.325Z,19.10
2018-10-11T09:17:01.034Z,19.20
2018-10-11T09:20:13.000Z,19.30
2018-10-11T09:23:25.137Z,19.50
2018-10-11T09:26:37.411Z,19.50
2018-10-11T09:29:48.461Z,19.60
2018-10-11T09:32:59.641Z,19.70
2018-10-11T09:36:11.671Z,19.70
2018-10-11T09:39:22.955Z,19.80
2018-10-11T09:42:34.069Z,19.80
2018-10-11T09:45:45.540Z,20.00
2018-10-11T09:48:56.970Z,20.00
2018-10-11T09:52:08.751Z,20.20
2018-10-11T09:55:19.968Z,20.20
2018-10-11T09:58:31.925Z,20.10
2018-10-11T10:01:46.387Z,20.20
2018-10-11T10:04:59.492Z,20.20
2018-10-11T10:08:10.686Z,20.30
2018-10-11T10:11:21.714Z,20.40
2018-10-11T10:14:33.435Z,20.50
2018-10-11T10:17:45.095Z,20.50
2018-10-11T10:20:56.495Z,20.50
2018-10-11T10:24:07.842Z,20.60
2018-10-11T10:27:19.057Z,20.60
2018-10-11T10:30:35.637Z,20.70
2018-10-11T10:33:47.253Z,20.70
2018-10-11T10:36:58.403Z,20.80
2018-10-11T10:40:11.203Z,20.80
2018-10-11T10:43:22.816Z,20.90
2018-10-11T10:46:35.335Z,20.90
2018-10-11T10:49:46.629Z,21.00
2018-10-11T10:52:57.614Z,21.00
2018-10-11T10:56:09.497Z,21.10
2018-10-11T10:59:21.089Z,21.10
2018-10-11T11:02:33.869Z,21.10
2018-10-11T11:05:45.007Z,21.20
2018-10-11T11:08:56.203Z,21.40
2018-10-11T11:12:09.182Z,21.30
2018-10-11T11:15:20.558Z,21.40
2018-10-11T11:18:31.979Z,21.50
2018-10-11T11:21:43.659Z,21.50
2018-10-11T11:24:55.690Z,21.60
2018-10-11T11:28:07.538Z,21.70
2018-10-11T11:31:23.270Z,21.70
2018-10-11T11:34:34.944Z,21.70
2018-10-11T11:37:46.194Z,21.70
2018-10-11T11:40:58.233Z,21.80
2018-10-11T11:44:10.218Z,21.90
2018-10-11T11:47:21.552Z,22.10
2018-10-11T11:50:33.635Z,22.10
2018-10-11T11:53:45.246Z,22.10
2018-10-11T11:56:57.192Z,22.10
2018-10-11T12:00:09.694Z,22.10
2018-10-11T12:03:21.459Z,22.10
2018-10-11T12:06:33.068Z,22.00
2018-10-11T12:09:44.809Z,22.10
2018-10-11T12:13:01.004Z,22.10
2018-10-11T12:16:12.618Z,22.10
2018-10-11T12:19:23.748Z,22.10
2018-10-11T12:22:35.099Z,22.10
2018-10-11T12:25:46.222Z,22.00
2018-10-11T12:28:57.903Z,22.10
2018-10-11T12:32:09.705Z,22.10
2018-10-11T12:35:22.904Z,22.20
2018-10-11T12:38:34.780Z,22.20
2018-10-11T12:41:46.210Z,22.10
2018-10-11T12:44:57.308Z,22.20
2018-10-11T12:48:08.734Z,22.30
2018-10-11T12:51:19.821Z,22.30
2018-10-11T12:54:31.511Z,22.60
2018-10-11T12:57:43.396Z,22.50
2018-10-11T13:00:54.219Z,22.60
2018-10-11T13:04:05.259Z,22.80
2018-10-11T13:07:17.270Z,22.70
2018-10-11T13:10:28.190Z,22.80
2018-10-11T13:13:41.555Z,22.80
2018-10-11T13:16:51.435Z,22.80
2018-10-11T13:20:03.031Z,22.70
2018-10-11T13:23:16.913Z,22.90
2018-10-11T13:26:25.363Z,23.00
2018-10-11T13:29:36.862Z,22.90
2018-10-11T13:32:48.415Z,22.90
2018-10-11T13:36:00.097Z,22.70
2018-10-11T13:39:11.526Z,22.80
2018-10-11T13:42:23.485Z,22.80
2018-10-11T13:45:34.953Z,22.60
2018-10-11T13:48:46.584Z,22.80
2018-10-11T13:51:57.806Z,22.90
2018-10-11T13:55:12.149Z,23.20
2018-10-11T13:58:21.237Z,23.20
2018-10-11T14:01:32.686Z,23.30
2018-10-11T14:04:44.322Z,23.40
2018-10-11T14:07:55.092Z,23.60
2018-10-11T14:11:08.434Z,23.40
2018-10-11T14:14:19.728Z,23.60
2018-10-11T14:17:31.528Z,23.50
2018-10-11T14:20:42.710Z,23.40
2018-10-11T14:23:54.383Z,23.20
2018-10-11T14:27:05.435Z,23.00
2018-10-11T14:30:16.850Z,22.90
2018-10-11T14:33:28.058Z,22.70
2018-10-11T14:36:39.120Z,22.50
2018-10-11T14:39:50.732Z,22.40
2018-10-11T14:43:01.760Z,22.20
2018-10-11T14:46:13.294Z,22.10
2018-10-11T14:49:26.037Z,22.00
2018-10-11T14:52:37.532Z,22.00
2018-10-11T14:55:49.571Z,22.00
2018-10-11T14:59:01.154Z,21.90
2018-10-11T15:02:13.102Z,21.90
2018-10-11T15:05:24.770Z,21.90
2018-10-11T15:08:36.783Z,21.80
2018-10-11T15:11:48.639Z,21.70
2018-10-11T15:15:00.494Z,21.60
2018-10-11T15:18:13.096Z,21.50
2018-10-11T15:21:24.421Z,21.50
2018-10-11T15:24:36.503Z,21.40
2018-10-11T15:27:48.182Z,21.30
2018-10-11T15:31:00.580Z,21.30
2018-10-11T15:34:12.198Z,21.10
2018-10-11T15:37:23.337Z,21.10
2018-10-11T15:40:35.434Z,21.10
2018-10-11T15:43:47.229Z,21.00
2018-10-11T15:47:00.395Z,21.10
2018-10-11T15:50:12.759Z,21.10
2018-10-11T15:53:24.980Z,20.90
2018-10-11T15:56:39.806Z,20.80
2018-10-11T15:59:52.584Z,20.70
2018-10-11T16:03:05.038Z,20.60
2018-10-11T16:06:16.461Z,20.40
2018-10-11T16:09:28.608Z,20.30
2018-10-11T16:12:41.215Z,20.00
2018-10-11T16:15:53.157Z,19.80
2018-10-11T16:19:05.964Z,19.70
2018-10-11T16:22:19.576Z,19.40
2018-10-11T16:25:31.636Z,19.20
2018-10-11T16:28:44.371Z,19.10
2018-10-11T16:31:55.867Z,18.80
2018-10-11T16:35:07.989Z,18.50
2018-10-11T16:38:21.232Z,18.40
2018-10-11T16:41:32.693Z,18.50
2018-10-11T16:44:44.773Z,18.30
2018-10-11T16:47:57.540Z,18.20
2018-10-11T16:51:09.426Z,18.10
2018-10-11T16:54:20.997Z,17.90
2018-10-11T16:57:33.081Z,17.90
2018-10-11T17:00:45.181Z,17.90
2018-10-11T17:03:59.721Z,17.80
2018-10-11T17:07:12.383Z,17.70
2018-10-11T17:10:25.826Z,17.40
2018-10-11T17:13:39.822Z,17.50
2018-10-11T17:16:54.720Z,17.40
2018-10-11T17:20:10.689Z,17.30
2018-10-11T17:23:24.201Z,17.00
2018-10-11T17:26:36.916Z,17.10
2018-10-11T17:29:49.823Z,17.30
2018-10-11T17:33:03.173Z,17.40
2018-10-11T17:36:15.249Z,17.50
2018-10-11T17:39:27.875Z,17.50
2018-10-11T17:43:10.782Z,17.70
2018-10-11T17:46:24.464Z,17.70
2018-10-11T17:49:38.569Z,17.70
2018-10-11T17:52:51.750Z,17.70
2018-10-11T17:56:06.267Z,17.70
2018-10-11T17:59:18.317Z,17.70
2018-10-11T18:02:31.027Z,17.80
2018-10-11T18:05:45.817Z,17.80
2018-10-11T18:08:59.611Z,17.80
2018-10-11T18:12:14.484Z,17.80
2018-10-11T18:15:26.386Z,17.80
2018-10-11T18:18:38.391Z,17.80
2018-10-11T18:21:50.010Z,17.80
2018-10-11T18:25:01.778Z,17.80
2018-10-11T18:28:13.580Z,17.80
2018-10-11T18:31:25.376Z,17.80
2018-10-11T18:34:36.520Z,17.70
2018-10-11T18:37:47.617Z,17.80
2018-10-11T18:40:59.320Z,17.70
2018-10-11T18:44:11.278Z,17.70
2018-10-11T18:47:22.823Z,17.70
2018-10-11T18:50:34.653Z,17.60
2018-10-11T18:53:46.690Z,17.60
2018-10-11T18:56:57.954Z,17.60
2018-10-11T19:00:09.577Z,17.50
2018-10-11T19:03:21.535Z,17.50
2018-10-11T19:06:33.545Z,17.60
2018-10-11T19:09:44.838Z,17.50
2018-10-11T19:12:56.279Z,17.50
2018-10-11T19:16:08.279Z,17.60
2018-10-11T19:19:19.458Z,17.50
2018-10-11T19:22:31.100Z,17.40
2018-10-11T19:25:42.748Z,17.40
2018-10-11T19:28:53.978Z,17.30
2018-10-11T19:32:05.817Z,17.30
2018-10-11T19:35:17.060Z,17.30
2018-10-11T19:38:28.545Z,17.30
2018-10-11T19:41:40.349Z,17.30
2018-10-11T19:44:52.176Z,17.30
2018-10-11T19:48:03.482Z,17.30
2018-10-11T19:51:14.554Z,17.30
2018-10-11T19:54:25.820Z,17.40
2018-10-11T19:57:37.463Z,17.30
2018-10-11T20:00:49.151Z,17.30
2018-10-11T20:04:01.041Z,17.30
2018-10-11T20:07:12.952Z,17.40
2018-10-11T20:10:24.583Z,17.40
2018-10-11T20:13:36.231Z,17.30
2018-10-11T20:16:47.318Z,17.30
2018-10-11T20:19:58.663Z,17.30
2018-10-11T20:23:10.185Z,17.30
2018-10-11T20:26:21.625Z,17.20
2018-10-11T20:29:33.491Z,17.20
2018-10-11T20:32:44.961Z,17.20
2018-10-11T20:35:56.327Z,17.10
2018-10-11T20:39:09.716Z,17.10
2018-10-11T20:42:21.203Z,17.00
2018-10-11T20:45:32.759Z,17.00
2018-10-11T20:48:44.467Z,17.00
2018-10-11T20:51:56.055Z,17.00
2018-10-11T20:55:08.161Z,16.90
2018-10-11T20:58:19.622Z,17.00
2018-10-11T21:01:30.951Z,16.90
2018-10-11T21:04:42.870Z,16.90
2018-10-11T21:07:54.531Z,16.90
2018-10-11T21:11:06.190Z,16.80
2018-10-11T21:14:17.685Z,16.80
2018-10-11T21:17:29.443Z,16.80
2018-10-11T21:20:41.053Z,16.70
2018-10-11T21:23:52.478Z,16.70
2018-10-11T21:27:04.214Z,16.70
2018-10-11T21:30:15.334Z,16.60
2018-10-11T21:33:27.278Z,16.60
2018-10-11T21:36:38.577Z,16.60
2018-10-11T21:39:50.079Z,16.60
2018-10-11T21:43:01.478Z,16.60
2018-10-11T21:46:13.008Z,16.50
2018-10-11T21:49:25.088Z,16.50
2018-10-11T21:52:36.361Z,16.60
2018-10-11T21:55:47.988Z,16.50
2018-10-11T21:58:59.660Z,16.50
2018-10-11T22:02:11.268Z,16.50
2018-10-11T22:05:22.288Z,16.50
2018-10-11T22:08:33.862Z,16.60
2018-10-11T22:11:45.609Z,16.60
2018-10-11T22:14:57.234Z,16.60
2018-10-11T22:18:08.912Z,16.60
2018-10-11T22:21:20.267Z,16.50
2018-10-11T22:24:32.535Z,16.40
2018-10-11T22:27:44.625Z,16.30
2018-10-11T22:30:56.366Z,16.30
2018-10-11T22:34:07.565Z,16.30
2018-10-11T22:37:19.325Z,16.20
2018-10-11T22:40:31.752Z,16.20
2018-10-11T22:43:43.473Z,16.20
2018-10-11T22:46:55.223Z,16.10
2018-10-11T22:50:06.897Z,16.10
2018-10-11T22:53:18.331Z,16.00
2018-10-11T22:56:29.871Z,16.10
2018-10-11T22:59:41.613Z,16.10
2018-10-11T23:02:53.700Z,16.10
2018-10-11T23:06:05.858Z,16.00
2018-10-11T23:09:17.150Z,16.00
2018-10-11T23:12:29.032Z,15.90
2018-10-11T23:15:40.421Z,15.80
2018-10-11T23:18:51.894Z,15.80
2018-10-11T23:22:03.039Z,15.80
2018-10-11T23:25:14.751Z,15.80
2018-10-11T23:28:26.226Z,15.80
2018-10-11T23:31:37.969Z,15.80
2018-10-11T23:34:49.527Z,15.80
2018-10-11T23:38:01.211Z,15.80
2018-10-11T23:41:12.405Z,15.70
2018-10-11T23:44:24.206Z,15.50
2018-10-11T23:47:35.312Z,15.40
2018-10-11T23:50:46.863Z,15.30
2018-10-11T23:53:57.900Z,15.10
2018-10-11T23:57:10.010Z,15.00
